CDT,Max TemperatureF,Mean TemperatureF,Min TemperatureF,Max Dew PointF,MeanDew PointF,Min DewpointF,Max Humidity, Mean Humidity, Min Humidity, Max Sea Level PressureIn, Mean Sea Level PressureIn, Min Sea Level PressureIn, Max VisibilityMiles, Mean VisibilityMiles, Min VisibilityMiles, Max Wind SpeedMPH, Mean Wind SpeedMPH, Max Gust SpeedMPH,PrecipitationIn, CloudCover, Events, WindDirDegrees
2013-3-1,53,42,32,30,28,23,87,59,33,30.29,30.24,30.19,10,10,10,18,7,23,0.00,1,,324
2013-3-2,51,40,30,28,22,16,81,54,26,30.42,30.32,30.25,10,10,10,18,9,22,0.00,0,,335
2013-3-3,69,50,30,41,29,23,87,49,23,30.24,30.06,29.83,10,10,10,22,7,30,0.00,0,,171
2013-3-4,80,66,53,46,44,39,72,51,24,29.83,29.70,29.62,10,10,10,25,18,36,0.00,0,,183
2013-3-5,60,50,41,48,24,14,66,40,20,30.36,30.22,29.77,10,10,10,30,17,41,0.00,0,,334
2013-3-6,60,46,33,32,21,10,75,44,14,30.47,30.34,30.22,10,10,5,10,6,16,0.00,0,,18
2013-3-7,69,50,32,32,27,21,87,46,16,30.27,30.20,30.13,10,10,5,16,5,21,0.00,0,,135
2013-3-8,64,57,50,52,45,32,72,62,44,30.22,30.13,30.03,10,10,10,13,8,17,0.00,6,Rain,135
2013-3-9,69,64,59,59,56,50,88,74,68,30.02,29.84,29.69,10,10,7,17,13,24,0.02,8,Rain-Thunderstorm,153
2013-3-10,62,50,39,59,39,28,94,68,50,30.08,29.91,29.73,10,10,2,25,12,32,0.41,6,Rain,296
2013-3-11,55,44,33,32,27,18,87,60,23,30.11,30.06,30.01,10,10,10,15,7,20,0.00,0,,296
2013-3-12,64,48,32,37,28,21,100,54,19,30.31,30.18,30.05,10,10,10,10,2,16,0.00,0,,23
2013-3-13,68,52,35,36,31,25,93,50,23,30.47,30.38,30.32,10,10,7,8,4,,0.00,0,,46
2013-3-14,75,58,41,45,36,30,72,49,25,30.37,30.29,30.19,10,10,10,21,7,25,0.00,0,,165
2013-3-15,78,64,51,50,45,37,82,51,23,30.19,30.07,29.91,10,10,10,25,12,31,0.00,0,,190
2013-3-16,78,68,57,54,51,46,82,56,39,29.91,29.82,29.72,10,10,10,24,17,31,0.00,0,,177
2013-3-17,77,66,55,59,54,48,83,66,46,29.80,29.74,29.68,10,10,10,20,13,28,0.00,6,,196
2013-3-18,69,60,51,61,45,34,94,61,33,30.03,29.83,29.65,10,9,4,20,9,26,0.00,2,,11
2013-3-19,68,56,44,39,33,30,76,46,24,30.15,30.05,29.98,10,10,10,13,6,20,0.00,0,,61
2013-3-20,66,54,42,36,30,18,70,43,18,30.32,30.19,30.05,10,10,10,12,5,20,0.00,0,,21
2013-3-21,66,56,46,45,35,28,66,46,34,30.04,29.81,29.63,10,10,7,21,9,26,0.01,6,Rain-Thunderstorm,117
2013-3-22,59,52,44,46,44,41,93,82,58,29.86,29.75,29.62,10,7,2,14,8,21,0.00,8,,35
2013-3-23,50,47,44,46,45,43,100,89,82,29.88,29.77,29.68,10,8,2,18,6,16,0.07,8,Rain-Thunderstorm,31
2013-3-24,51,44,37,46,29,21,87,57,33,30.18,30.03,29.81,10,10,5,24,16,36,0.02,5,Rain-Thunderstorm,319
2013-3-25,53,42,32,25,18,10,69,43,21,30.40,30.30,30.18,10,10,10,20,9,28,0.00,0,,322
2013-3-26,55,42,30,30,20,16,81,47,23,30.51,30.41,30.33,10,10,10,12,4,9,0.00,0,,346
2013-3-27,69,50,32,34,28,19,80,46,16,30.34,30.25,30.13,10,10,10,20,7,28,0.00,0,,149
2013-3-28,71,60,50,52,48,36,82,61,46,30.25,30.18,30.12,10,10,10,16,10,21,0.00,4,,162
2013-3-29,73,66,59,55,54,52,82,64,50,30.21,30.14,30.07,10,10,10,21,11,24,0.00,7,,171
2013-3-30,75,65,55,61,58,54,94,77,57,30.09,29.99,29.91,10,10,2,20,9,30,0.55,7,Rain-Thunderstorm,198
2013-3-31,71,64,55,61,55,50,94,75,49,29.99,29.93,29.83,10,10,2,20,7,28,0.36,3,Rain-Thunderstorm,25